Terminal Aerodrome Forecast
Issued by NWS Memphis, TN

Home | Current Version | Previous Version | Text Only | Print | Product List | Glossary On
Versions: 1 2 3 4 5 6 7 8 9 10 11 12 13 14 15 16 17 18 19 20 21
000
FTUS44 KMEG 271914 AAA
TAFJBR
TAF AMD
KJBR 271914Z 2719/2818 05015G26KT P6SM SCT200
     FM280000 03008KT P6SM OVC150
     FM281000 04012KT P6SM OVC100
     FM281500 05013KT P6SM OVC100=

USA.gov is the U.S. government's official web portal to all federal, state and local government web resources and services.